createdAt,value
2023-05-22T00:01:37.730Z,5.30
2023-05-22T00:04:04.806Z,5.70
2023-05-22T00:06:31.620Z,5.30
2023-05-22T00:08:58.237Z,5.30
2023-05-22T00:11:24.878Z,5.30
2023-05-22T00:13:51.648Z,5.00
2023-05-22T00:16:18.329Z,5.10
2023-05-22T00:18:45.201Z,5.50
2023-05-22T00:21:12.018Z,5.40
2023-05-22T00:23:38.727Z,6.00
2023-05-22T00:26:05.414Z,5.60
2023-05-22T00:28:32.081Z,5.70
2023-05-22T00:30:58.740Z,5.70
2023-05-22T00:33:25.436Z,6.20
2023-05-22T00:35:52.181Z,5.80
2023-05-22T00:38:35.163Z,6.10
2023-05-22T00:41:03.213Z,6.00
2023-05-22T00:43:29.975Z,5.80
2023-05-22T00:45:56.805Z,6.50
2023-05-22T00:48:23.879Z,6.40
2023-05-22T00:50:51.106Z,6.50
2023-05-22T00:53:19.642Z,5.70
2023-05-22T00:55:46.344Z,5.90
2023-05-22T00:58:19.184Z,5.70
2023-05-22T01:00:49.269Z,5.90
2023-05-22T01:03:16.071Z,6.30
2023-05-22T01:05:43.710Z,6.30
2023-05-22T01:08:10.506Z,5.90
2023-05-22T01:10:38.182Z,6.00
2023-05-22T01:13:30.676Z,5.70
2023-05-22T01:16:20.969Z,6.20
2023-05-22T01:19:18.157Z,6.20
2023-05-22T01:21:56.052Z,5.90
2023-05-22T01:24:37.328Z,6.20
2023-05-22T01:27:25.942Z,5.60
2023-05-22T01:30:11.213Z,5.70
2023-05-22T01:32:38.423Z,6.00
2023-05-22T01:35:08.447Z,5.90
2023-05-22T01:37:35.142Z,5.80
2023-05-22T01:40:01.908Z,6.00
2023-05-22T01:42:29.124Z,6.00
2023-05-22T01:44:55.808Z,5.90
2023-05-22T01:47:23.316Z,6.10
2023-05-22T01:49:51.944Z,5.80
2023-05-22T01:52:42.251Z,6.10
2023-05-22T01:55:27.576Z,5.70
2023-05-22T01:57:59.923Z,5.90
2023-05-22T02:00:26.633Z,6.00
2023-05-22T02:02:58.770Z,5.80
2023-05-22T02:05:25.597Z,6.00
2023-05-22T02:07:52.347Z,6.10
2023-05-22T02:10:19.052Z,6.10
2023-05-22T02:12:45.805Z,5.80
2023-05-22T02:15:12.726Z,6.00
2023-05-22T02:17:42.588Z,6.00
2023-05-22T02:20:15.322Z,6.10
2023-05-22T02:22:46.886Z,5.90
2023-05-22T02:25:17.684Z,5.80
2023-05-22T02:27:45.832Z,6.00
2023-05-22T02:30:13.386Z,5.40
2023-05-22T02:32:41.064Z,5.60
2023-05-22T02:35:08.336Z,5.10
2023-05-22T02:37:35.205Z,5.60
2023-05-22T02:40:02.011Z,6.30
2023-05-22T02:42:29.365Z,5.60
2023-05-22T02:44:56.095Z,5.50
2023-05-22T02:47:22.766Z,5.70
2023-05-22T02:49:49.446Z,5.50
2023-05-22T02:52:16.264Z,5.20
2023-05-22T02:54:43.014Z,5.20
2023-05-22T02:57:09.784Z,5.00
2023-05-22T02:59:36.877Z,5.10
2023-05-22T03:02:03.885Z,5.10
2023-05-22T03:04:30.735Z,5.20
2023-05-22T03:06:57.439Z,5.60
2023-05-22T03:09:25.193Z,5.60
2023-05-22T03:11:51.890Z,5.60
2023-05-22T03:14:18.597Z,5.20
2023-05-22T03:16:45.370Z,5.70
2023-05-22T03:19:13.492Z,4.70
2023-05-22T03:21:40.841Z,5.30
2023-05-22T03:24:08.068Z,4.90
2023-05-22T03:26:34.767Z,4.90
2023-05-22T03:29:03.245Z,5.30
2023-05-22T03:31:33.234Z,4.90
2023-05-22T03:34:11.431Z,5.00
2023-05-22T03:36:38.378Z,5.20
2023-05-22T03:39:05.362Z,5.00
2023-05-22T03:41:35.115Z,4.80
2023-05-22T03:44:03.140Z,4.90
2023-05-22T03:46:29.993Z,5.40
2023-05-22T03:48:56.796Z,5.10
2023-05-22T03:51:24.467Z,5.20
2023-05-22T03:53:51.083Z,5.30
2023-05-22T03:56:17.903Z,5.70
2023-05-22T03:58:47.656Z,5.40
2023-05-22T04:01:14.313Z,5.30
2023-05-22T04:03:41.209Z,5.60
2023-05-22T04:06:07.876Z,5.60
2023-05-22T04:08:34.771Z,5.70
2023-05-22T04:11:01.535Z,5.20
2023-05-22T04:13:28.733Z,5.50
2023-05-22T04:15:56.848Z,5.30
2023-05-22T04:18:23.688Z,5.40
2023-05-22T04:20:51.868Z,5.30
2023-05-22T04:23:18.906Z,5.50
2023-05-22T04:25:48.161Z,5.20
2023-05-22T04:28:17.571Z,4.70
2023-05-22T04:30:46.291Z,4.80
2023-05-22T04:33:13.694Z,4.80
2023-05-22T04:35:43.017Z,4.70
2023-05-22T04:38:09.740Z,4.50
2023-05-22T04:40:38.027Z,4.00
2023-05-22T04:43:05.134Z,3.80
2023-05-22T04:45:32.997Z,2.90
2023-05-22T04:48:02.596Z,2.80
2023-05-22T04:50:32.640Z,2.70
2023-05-22T04:52:59.949Z,2.30
2023-05-22T04:55:26.781Z,2.20
2023-05-22T04:57:53.686Z,2.10
2023-05-22T05:00:26.259Z,2.20
2023-05-22T05:02:53.640Z,2.10
2023-05-22T05:05:20.635Z,2.20
2023-05-22T05:07:50.096Z,1.80
2023-05-22T05:10:17.376Z,2.00
2023-05-22T05:12:44.093Z,2.10
2023-05-22T05:15:10.917Z,2.10
2023-05-22T05:17:37.776Z,2.00
2023-05-22T05:20:07.151Z,2.00
2023-05-22T05:22:33.974Z,2.00
2023-05-22T05:25:01.966Z,1.80
2023-05-22T05:27:29.056Z,1.80
2023-05-22T05:29:56.279Z,2.00
2023-05-22T05:32:27.590Z,1.80
2023-05-22T05:35:02.387Z,1.70
2023-05-22T05:37:41.846Z,1.60
2023-05-22T05:40:09.840Z,1.80
2023-05-22T05:42:40.443Z,1.80
2023-05-22T05:45:09.598Z,1.60
2023-05-22T05:47:36.406Z,2.00
2023-05-22T05:50:03.410Z,1.80
2023-05-22T05:52:32.773Z,1.80
2023-05-22T05:55:01.878Z,1.80
2023-05-22T05:57:29.845Z,2.00
2023-05-22T05:59:57.110Z,1.80
2023-05-22T06:02:42.064Z,2.00
2023-05-22T06:05:19.509Z,2.10
2023-05-22T06:07:48.299Z,2.20
2023-05-22T06:10:15.556Z,2.20
2023-05-22T06:12:55.277Z,2.00
2023-05-22T06:15:21.999Z,2.10
2023-05-22T06:17:48.709Z,2.00
2023-05-22T06:20:15.689Z,2.00
2023-05-22T06:22:42.477Z,2.00
2023-05-22T06:25:10.013Z,2.10
2023-05-22T06:27:37.256Z,2.10
2023-05-22T06:30:05.726Z,2.00
2023-05-22T06:32:35.830Z,2.10
2023-05-22T06:35:03.473Z,2.00
2023-05-22T06:37:33.038Z,2.20
2023-05-22T06:40:00.986Z,2.30
2023-05-22T06:42:33.015Z,2.10
2023-05-22T06:45:37.423Z,2.00
2023-05-22T06:48:34.208Z,2.10
2023-05-22T06:51:30.134Z,2.00
2023-05-22T06:54:06.900Z,2.10
2023-05-22T06:56:35.417Z,2.20
2023-05-22T06:59:06.227Z,2.00
2023-05-22T07:01:56.292Z,1.80
2023-05-22T07:04:32.836Z,2.00
2023-05-22T07:07:02.007Z,1.70
2023-05-22T07:09:29.289Z,1.90
2023-05-22T07:11:56.000Z,1.80
2023-05-22T07:14:22.926Z,1.70
2023-05-22T07:16:50.454Z,1.90
2023-05-22T07:19:21.406Z,1.90
2023-05-22T07:21:48.248Z,1.80
2023-05-22T07:24:16.811Z,1.90
2023-05-22T07:26:46.808Z,1.90
2023-05-22T07:29:16.892Z,1.80
2023-05-22T07:31:45.575Z,1.70
2023-05-22T07:34:12.296Z,2.00
2023-05-22T07:36:39.126Z,2.30
2023-05-22T07:39:06.816Z,1.80
2023-05-22T07:41:36.090Z,1.70
2023-05-22T07:44:03.289Z,1.60
2023-05-22T07:46:32.584Z,1.60
2023-05-22T07:49:07.198Z,1.80
2023-05-22T07:51:34.709Z,1.50
2023-05-22T07:54:01.577Z,1.80
2023-05-22T07:56:28.402Z,1.80
2023-05-22T07:58:55.594Z,1.60
2023-05-22T08:01:23.537Z,1.50
2023-05-22T08:03:50.750Z,1.60
2023-05-22T08:06:17.915Z,1.60
2023-05-22T08:08:44.640Z,1.50
2023-05-22T08:11:11.500Z,1.50
2023-05-22T08:13:38.757Z,1.50
2023-05-22T08:16:06.405Z,1.70
2023-05-22T08:18:33.381Z,1.40
2023-05-22T08:21:00.816Z,1.60
2023-05-22T08:23:27.595Z,1.40
2023-05-22T08:25:54.292Z,1.50
2023-05-22T08:28:21.053Z,1.30
2023-05-22T08:30:47.748Z,1.50
2023-05-22T08:33:14.545Z,1.30
2023-05-22T08:35:41.348Z,1.30
2023-05-22T08:38:07.954Z,1.30
2023-05-22T08:40:39.515Z,1.40
2023-05-22T08:43:06.647Z,1.70
2023-05-22T08:45:34.250Z,1.50
2023-05-22T08:48:07.597Z,1.40
2023-05-22T08:50:37.025Z,1.50
2023-05-22T08:53:03.765Z,1.30
2023-05-22T08:55:30.662Z,1.70
2023-05-22T08:57:57.476Z,1.80
2023-05-22T09:00:24.214Z,1.40
2023-05-22T09:02:51.030Z,1.40
2023-05-22T09:05:18.038Z,1.50
2023-05-22T09:07:45.145Z,1.30
2023-05-22T09:10:11.800Z,1.40
2023-05-22T09:12:38.575Z,1.50
2023-05-22T09:15:11.870Z,1.70
2023-05-22T09:17:39.982Z,1.50
2023-05-22T09:20:07.549Z,2.20
2023-05-22T09:22:40.431Z,1.40
2023-05-22T09:27:34.737Z,1.40
2023-05-22T09:30:01.427Z,1.40
2023-05-22T09:32:31.350Z,1.40
2023-05-22T09:35:04.886Z,1.40
2023-05-22T09:37:37.671Z,1.30
2023-05-22T09:40:08.601Z,1.60
2023-05-22T09:42:35.396Z,1.30
2023-05-22T09:45:08.516Z,1.70
2023-05-22T09:47:35.338Z,1.30
2023-05-22T09:50:07.256Z,1.30
2023-05-22T09:52:35.022Z,1.50
2023-05-22T09:55:08.855Z,1.40
2023-05-22T09:57:45.113Z,1.30
2023-05-22T10:00:15.017Z,1.40
2023-05-22T10:02:44.304Z,1.20
2023-05-22T10:05:11.094Z,1.40
2023-05-22T10:07:47.881Z,1.50
2023-05-22T10:10:14.773Z,1.40
2023-05-22T10:12:58.164Z,1.30
2023-05-22T10:15:25.077Z,1.50
2023-05-22T10:17:51.935Z,1.30
2023-05-22T10:20:19.199Z,1.30
2023-05-22T10:22:46.570Z,1.60
2023-05-22T10:25:13.367Z,1.40
2023-05-22T10:27:40.204Z,1.50
2023-05-22T10:30:29.578Z,1.40
2023-05-22T10:33:19.697Z,1.40
2023-05-22T10:36:06.891Z,1.50
2023-05-22T10:38:58.221Z,1.50
2023-05-22T10:41:24.960Z,1.40
2023-05-22T10:43:51.897Z,1.30
2023-05-22T10:46:18.874Z,1.40
2023-05-22T10:48:47.009Z,1.40
2023-05-22T10:51:14.708Z,1.40
2023-05-22T10:53:42.982Z,1.30
2023-05-22T10:56:13.770Z,1.60
2023-05-22T10:58:42.724Z,1.30
2023-05-22T11:01:15.910Z,1.50
2023-05-22T11:04:01.308Z,1.50
2023-05-22T11:06:34.087Z,1.40
2023-05-22T11:09:19.877Z,1.40
2023-05-22T11:11:46.883Z,1.30
2023-05-22T11:14:16.369Z,1.30
2023-05-22T11:16:43.099Z,3.40
2023-05-22T11:19:22.837Z,1.30
2023-05-22T11:21:50.244Z,1.40
2023-05-22T11:24:18.258Z,1.20
2023-05-22T11:26:45.235Z,1.40
2023-05-22T11:29:11.979Z,1.30
2023-05-22T11:31:38.878Z,1.30
2023-05-22T11:34:05.781Z,1.40
2023-05-22T11:36:32.517Z,1.30
2023-05-22T11:39:00.075Z,1.30
2023-05-22T11:41:33.206Z,2.30
2023-05-22T11:44:01.600Z,1.30
2023-05-22T11:46:30.450Z,1.40
2023-05-22T11:48:57.242Z,1.20
2023-05-22T11:51:23.948Z,1.30
2023-05-22T11:53:51.080Z,1.30
2023-05-22T11:56:23.040Z,1.30
2023-05-22T11:58:50.700Z,1.70
2023-05-22T12:01:17.998Z,1.40
2023-05-22T12:03:45.307Z,1.50
2023-05-22T12:06:14.544Z,1.30
2023-05-22T12:08:44.063Z,1.20
2023-05-22T12:12:22.692Z,1.30
2023-05-22T12:14:51.165Z,1.30
2023-05-22T12:17:18.588Z,1.20
2023-05-22T12:19:47.336Z,1.40
2023-05-22T12:22:14.641Z,1.30
2023-05-22T12:24:42.593Z,1.40
2023-05-22T12:27:12.722Z,1.20
2023-05-22T12:29:40.037Z,1.30
2023-05-22T12:32:08.721Z,1.50
2023-05-22T12:34:36.082Z,1.80
2023-05-22T12:37:03.272Z,1.30
2023-05-22T12:39:30.589Z,1.30
2023-05-22T12:41:57.797Z,1.20
2023-05-22T12:44:26.105Z,1.20
2023-05-22T12:46:53.442Z,1.30
2023-05-22T12:49:20.917Z,1.50
2023-05-22T12:51:48.181Z,1.30
2023-05-22T12:54:15.529Z,1.30
2023-05-22T12:56:42.746Z,1.40
2023-05-22T12:59:10.075Z,1.40
2023-05-22T13:01:37.438Z,1.30
2023-05-22T13:04:04.989Z,1.40
2023-05-22T13:06:32.370Z,1.50
2023-05-22T13:08:59.792Z,1.50
2023-05-22T13:11:27.349Z,1.50
2023-05-22T13:13:54.769Z,1.50
2023-05-22T13:16:22.081Z,1.20
2023-05-22T13:18:49.432Z,1.50
2023-05-22T13:21:16.714Z,1.50
2023-05-22T13:23:43.917Z,1.20
2023-05-22T13:26:11.318Z,1.60
2023-05-22T13:28:38.633Z,1.40
2023-05-22T13:31:06.055Z,1.20
2023-05-22T13:33:33.458Z,1.20
2023-05-22T13:36:01.166Z,1.40
2023-05-22T13:38:28.384Z,1.20
2023-05-22T13:40:55.785Z,1.30
2023-05-22T13:43:23.160Z,1.40
2023-05-22T13:45:50.452Z,1.50
2023-05-22T13:48:18.044Z,1.50
2023-05-22T13:50:45.499Z,1.40
2023-05-22T13:53:12.704Z,1.60
2023-05-22T13:55:40.105Z,1.60
2023-05-22T13:58:07.525Z,1.40
2023-05-22T14:00:34.726Z,1.50
2023-05-22T14:03:02.005Z,1.40
2023-05-22T14:05:29.331Z,2.30
2023-05-22T14:07:56.817Z,1.40
2023-05-22T14:10:24.014Z,3.40
2023-05-22T14:12:51.422Z,1.40
2023-05-22T14:15:18.701Z,1.40
2023-05-22T14:17:46.724Z,1.60
2023-05-22T14:20:14.072Z,1.40
2023-05-22T14:22:55.942Z,1.50
2023-05-22T14:25:25.157Z,1.30
2023-05-22T14:27:52.426Z,1.50
2023-05-22T14:30:19.660Z,1.40
2023-05-22T14:32:47.158Z,1.40
2023-05-22T14:35:16.654Z,1.30
2023-05-22T14:37:43.928Z,1.70
2023-05-22T14:40:11.289Z,1.40
2023-05-22T14:42:38.964Z,1.40
2023-05-22T14:45:06.587Z,1.40
2023-05-22T14:47:33.840Z,1.30
2023-05-22T14:50:14.634Z,1.30
2023-05-22T14:52:46.052Z,1.50
2023-05-22T14:55:13.428Z,1.60
2023-05-22T14:57:40.621Z,1.50
2023-05-22T15:00:12.137Z,1.50
2023-05-22T15:02:39.873Z,1.40
2023-05-22T15:05:08.033Z,2.50
2023-05-22T15:07:44.095Z,1.60
2023-05-22T15:10:13.237Z,1.40
2023-05-22T15:12:41.174Z,1.50
2023-05-22T15:15:09.002Z,1.30
2023-05-22T15:17:36.341Z,1.40
2023-05-22T15:20:05.485Z,1.40
2023-05-22T15:22:32.915Z,1.60
2023-05-22T15:25:07.753Z,1.30
2023-05-22T15:27:35.681Z,1.40
2023-05-22T15:30:04.329Z,1.40
2023-05-22T15:32:32.513Z,1.40
2023-05-22T15:34:59.965Z,1.60
2023-05-22T15:37:28.297Z,1.50
2023-05-22T15:39:56.952Z,1.40
2023-05-22T15:42:24.585Z,1.40
2023-05-22T15:44:51.977Z,2.10
2023-05-22T15:47:19.175Z,1.60
2023-05-22T15:49:46.433Z,1.50
2023-05-22T15:52:13.688Z,1.40
2023-05-22T15:54:41.188Z,2.30
2023-05-22T15:57:08.512Z,1.30
2023-05-22T15:59:36.199Z,1.40
2023-05-22T16:02:03.574Z,1.50
2023-05-22T16:04:31.211Z,1.70
2023-05-22T16:06:58.631Z,1.60
2023-05-22T16:09:26.003Z,1.50
2023-05-22T16:11:53.376Z,1.50
2023-05-22T16:14:20.913Z,1.40
2023-05-22T16:16:48.554Z,1.40
2023-05-22T16:19:15.860Z,1.70
2023-05-22T16:21:43.198Z,1.60
2023-05-22T16:24:11.074Z,1.60
2023-05-22T16:26:39.389Z,1.80
2023-05-22T16:29:09.545Z,1.60
2023-05-22T16:31:37.040Z,1.80
2023-05-22T16:34:04.754Z,1.60
2023-05-22T16:36:32.673Z,1.50
2023-05-22T16:38:59.962Z,1.90
2023-05-22T16:41:27.600Z,1.60
2023-05-22T16:43:54.879Z,1.50
2023-05-22T16:46:22.244Z,1.70
2023-05-22T16:48:50.405Z,1.70
2023-05-22T16:51:17.719Z,1.80
2023-05-22T16:53:46.633Z,1.80
2023-05-22T16:56:14.634Z,3.10
2023-05-22T16:58:41.859Z,17.00
2023-05-22T17:01:09.477Z,15.10
2023-05-22T17:03:36.880Z,34.70
2023-05-22T17:06:04.981Z,7.20
2023-05-22T17:08:32.392Z,6.80
2023-05-22T17:10:59.622Z,4.10
2023-05-22T17:13:26.847Z,2.80
2023-05-22T17:15:54.124Z,2.20
2023-05-22T17:18:21.943Z,2.00
2023-05-22T17:20:49.755Z,2.20
2023-05-22T17:23:17.098Z,2.20
2023-05-22T17:25:46.684Z,2.10
2023-05-22T17:28:14.656Z,2.20
2023-05-22T17:30:43.033Z,2.20
2023-05-22T17:33:11.038Z,2.30
2023-05-22T17:35:38.432Z,2.30
2023-05-22T17:38:07.826Z,2.20
2023-05-22T17:40:43.908Z,2.40
2023-05-22T17:43:12.530Z,2.10
2023-05-22T17:45:39.979Z,2.30
2023-05-22T17:48:07.648Z,2.20
2023-05-22T17:50:35.264Z,2.30
2023-05-22T17:53:03.037Z,2.20
2023-05-22T17:55:30.239Z,2.90
2023-05-22T17:57:58.923Z,2.60
2023-05-22T18:00:26.198Z,2.30
2023-05-22T18:02:53.577Z,2.40
2023-05-22T18:05:21.159Z,3.60
2023-05-22T18:07:48.417Z,5.90
2023-05-22T18:10:15.906Z,5.10
2023-05-22T18:12:43.145Z,4.20
2023-05-22T18:15:12.065Z,3.70
2023-05-22T18:17:39.982Z,2.80
2023-05-22T18:20:08.456Z,2.60
2023-05-22T18:22:37.190Z,2.90
2023-05-22T18:25:05.508Z,3.20
2023-05-22T18:27:33.545Z,3.40
2023-05-22T18:30:00.825Z,2.90
2023-05-22T18:32:28.125Z,2.80
2023-05-22T18:34:55.760Z,2.60
2023-05-22T18:37:23.090Z,2.70
2023-05-22T18:39:50.523Z,2.40
2023-05-22T18:42:17.787Z,3.00
2023-05-22T18:44:46.290Z,3.10
2023-05-22T18:47:15.482Z,3.10
2023-05-22T18:49:42.786Z,3.30
2023-05-22T18:52:10.067Z,3.20
2023-05-22T18:54:37.356Z,3.80
2023-05-22T18:57:04.962Z,3.40
2023-05-22T18:59:32.240Z,3.30
2023-05-22T19:01:59.460Z,3.10
2023-05-22T19:04:26.849Z,3.30
2023-05-22T19:06:54.270Z,3.90
2023-05-22T19:09:22.193Z,4.20
2023-05-22T19:11:49.450Z,4.30
2023-05-22T19:14:16.756Z,4.50
2023-05-22T19:16:44.246Z,4.40
2023-05-22T19:19:11.799Z,5.10
2023-05-22T19:21:39.173Z,6.10
2023-05-22T19:24:06.990Z,5.80
2023-05-22T19:26:34.291Z,5.60
2023-05-22T19:29:01.565Z,5.00
2023-05-22T19:31:28.977Z,4.90
2023-05-22T19:33:56.385Z,4.60
2023-05-22T19:36:23.696Z,4.00
2023-05-22T19:38:53.255Z,4.00
2023-05-22T19:41:22.831Z,3.90
2023-05-22T19:43:51.056Z,3.90
2023-05-22T19:46:18.327Z,4.00
2023-05-22T19:48:46.014Z,3.80
2023-05-22T19:51:13.421Z,3.80
2023-05-22T19:53:41.459Z,4.10
2023-05-22T19:56:08.776Z,3.60
2023-05-22T19:58:36.083Z,3.70
2023-05-22T20:01:03.299Z,3.70
2023-05-22T20:03:30.709Z,3.70
2023-05-22T20:05:58.021Z,3.70
2023-05-22T20:08:25.592Z,3.90
2023-05-22T20:10:53.081Z,3.90
2023-05-22T20:13:20.315Z,3.80
2023-05-22T20:15:47.905Z,3.80
2023-05-22T20:18:15.446Z,3.80
2023-05-22T20:20:42.848Z,4.00
2023-05-22T20:23:10.042Z,4.00
2023-05-22T20:25:37.731Z,3.80
2023-05-22T20:28:05.243Z,3.50
2023-05-22T20:30:32.788Z,3.80
2023-05-22T20:33:00.055Z,4.10
2023-05-22T20:35:27.434Z,3.90
2023-05-22T20:37:55.219Z,3.80
2023-05-22T20:40:26.578Z,4.20
2023-05-22T20:42:53.897Z,4.20
2023-05-22T20:45:21.116Z,3.90
2023-05-22T20:47:48.562Z,4.20
2023-05-22T20:50:15.987Z,5.10
2023-05-22T20:52:45.862Z,4.80
2023-05-22T20:55:13.162Z,4.80
2023-05-22T20:57:40.476Z,4.50
2023-05-22T21:00:11.085Z,4.70
2023-05-22T21:02:41.333Z,4.50
2023-05-22T21:05:09.023Z,4.40
2023-05-22T21:07:36.293Z,4.10
2023-05-22T21:10:03.609Z,4.20
2023-05-22T21:12:30.875Z,4.30
2023-05-22T21:14:58.216Z,4.20
2023-05-22T21:17:26.301Z,4.50
2023-05-22T21:19:53.826Z,4.40
2023-05-22T21:22:21.145Z,4.40
2023-05-22T21:24:48.411Z,4.30
2023-05-22T21:27:15.695Z,4.30
2023-05-22T21:29:42.948Z,4.20
2023-05-22T21:32:10.290Z,4.40
2023-05-22T21:34:37.499Z,4.40
2023-05-22T21:37:04.960Z,4.60
2023-05-22T21:39:32.160Z,4.70
2023-05-22T21:41:59.399Z,4.80
2023-05-22T21:44:26.640Z,4.70
2023-05-22T21:46:53.928Z,4.40
2023-05-22T21:49:21.194Z,4.40
2023-05-22T21:51:48.441Z,4.60
2023-05-22T21:54:15.628Z,4.40
2023-05-22T21:56:42.853Z,4.40
2023-05-22T21:59:13.465Z,4.70
2023-05-22T22:01:40.740Z,4.80
2023-05-22T22:04:08.346Z,4.70
2023-05-22T22:06:36.780Z,4.80
2023-05-22T22:09:04.087Z,4.90
2023-05-22T22:11:31.305Z,5.00
2023-05-22T22:13:58.612Z,5.30
2023-05-22T22:16:26.171Z,4.80
2023-05-22T22:18:53.968Z,5.00
2023-05-22T22:21:21.323Z,4.90
2023-05-22T22:23:48.575Z,4.80
2023-05-22T22:26:16.256Z,5.40
2023-05-22T22:28:43.481Z,5.40
2023-05-22T22:31:11.287Z,5.30
2023-05-22T22:33:38.652Z,5.50
2023-05-22T22:36:06.117Z,5.30
2023-05-22T22:38:35.062Z,5.10
2023-05-22T22:41:04.254Z,5.20
2023-05-22T22:43:31.437Z,4.90
2023-05-22T22:45:58.657Z,5.10
2023-05-22T22:48:26.091Z,5.30
2023-05-22T22:50:53.463Z,5.00
2023-05-22T22:53:20.747Z,4.70
2023-05-22T22:55:48.995Z,4.90
2023-05-22T22:58:18.749Z,5.10
2023-05-22T23:00:46.019Z,4.80
2023-05-22T23:03:13.255Z,4.90
2023-05-22T23:05:40.721Z,5.00
2023-05-22T23:08:08.245Z,5.10
2023-05-22T23:10:35.640Z,5.20
2023-05-22T23:13:02.866Z,5.20
2023-05-22T23:15:30.335Z,5.00
2023-05-22T23:17:57.640Z,5.40
2023-05-22T23:20:24.881Z,5.40
2023-05-22T23:22:52.155Z,5.60
2023-05-22T23:25:19.459Z,5.60
2023-05-22T23:27:46.725Z,5.60
2023-05-22T23:30:14.012Z,5.50
2023-05-22T23:32:41.340Z,5.60
2023-05-22T23:35:09.630Z,5.50
2023-05-22T23:37:37.046Z,5.90
2023-05-22T23:40:06.377Z,6.70
2023-05-22T23:42:35.360Z,5.90
2023-05-22T23:45:04.062Z,6.30
2023-05-22T23:47:31.689Z,6.20
2023-05-22T23:49:59.691Z,5.80
2023-05-22T23:52:27.170Z,6.20
2023-05-22T23:54:54.372Z,6.00
2023-05-22T23:57:21.631Z,6.10
2023-05-22T23:59:48.924Z,6.30
